sensor_id;sensor_type;location;lat;lon;timestamp;P1;durP1;ratioP1;P2;durP2;ratioP2
58685;SDS011;44465;53.206;-6.106;2023-03-01T00:01:05;5.20;;;1.63;;
58685;SDS011;44465;53.206;-6.106;2023-03-01T00:03:32;4.57;;;1.75;;
58685;SDS011;44465;53.206;-6.106;2023-03-01T00:05:59;5.05;;;1.75;;
58685;SDS011;44465;53.206;-6.106;2023-03-01T00:08:25;8.27;;;1.52;;
58685;SDS011;44465;53.206;-6.106;2023-03-01T00:11:01;8.10;;;2.08;;
58685;SDS011;44465;53.206;-6.106;2023-03-01T00:13:27;7.45;;;1.88;;
58685;SDS011;44465;53.206;-6.106;2023-03-01T00:15:53;3.50;;;1.60;;
58685;SDS011;44465;53.206;-6.106;2023-03-01T00:18:18;6.72;;;1.73;;
58685;SDS011;44465;53.206;-6.106;2023-03-01T00:20:53;4.72;;;1.38;;
58685;SDS011;44465;53.206;-6.106;2023-03-01T00:23:20;2.35;;;1.67;;
58685;SDS011;44465;53.206;-6.106;2023-03-01T00:25:47;3.08;;;1.17;;
58685;SDS011;44465;53.206;-6.106;2023-03-01T00:28:13;6.80;;;1.77;;
58685;SDS011;44465;53.206;-6.106;2023-03-01T00:30:39;3.60;;;0.90;;
58685;SDS011;44465;53.206;-6.106;2023-03-01T00:33:04;5.30;;;1.83;;
58685;SDS011;44465;53.206;-6.106;2023-03-01T00:35:31;6.53;;;1.40;;
58685;SDS011;44465;53.206;-6.106;2023-03-01T00:37:57;4.47;;;1.30;;
58685;SDS011;44465;53.206;-6.106;2023-03-01T00:40:24;3.17;;;1.15;;
58685;SDS011;44465;53.206;-6.106;2023-03-01T00:42:50;4.88;;;1.63;;
58685;SDS011;44465;53.206;-6.106;2023-03-01T00:45:15;2.00;;;1.05;;
58685;SDS011;44465;53.206;-6.106;2023-03-01T00:47:41;2.55;;;1.20;;
58685;SDS011;44465;53.206;-6.106;2023-03-01T00:50:07;2.83;;;1.00;;
58685;SDS011;44465;53.206;-6.106;2023-03-01T00:52:33;3.38;;;1.50;;
58685;SDS011;44465;53.206;-6.106;2023-03-01T00:54:59;6.13;;;1.08;;
58685;SDS011;44465;53.206;-6.106;2023-03-01T00:57:25;3.10;;;1.20;;
58685;SDS011;44465;53.206;-6.106;2023-03-01T00:59:50;2.80;;;1.20;;
58685;SDS011;44465;53.206;-6.106;2023-03-01T01:02:20;5.72;;;1.25;;
58685;SDS011;44465;53.206;-6.106;2023-03-01T01:04:46;2.45;;;0.98;;
58685;SDS011;44465;53.206;-6.106;2023-03-01T01:07:12;3.50;;;0.95;;
58685;SDS011;44465;53.206;-6.106;2023-03-01T01:09:38;1.88;;;1.35;;
58685;SDS011;44465;53.206;-6.106;2023-03-01T01:12:04;3.08;;;1.33;;
58685;SDS011;44465;53.206;-6.106;2023-03-01T01:14:30;3.55;;;1.08;;
58685;SDS011;44465;53.206;-6.106;2023-03-01T01:16:55;1.85;;;1.00;;
58685;SDS011;44465;53.206;-6.106;2023-03-01T01:19:22;3.63;;;1.10;;
58685;SDS011;44465;53.206;-6.106;2023-03-01T01:21:48;2.63;;;0.70;;
58685;SDS011;44465;53.206;-6.106;2023-03-01T01:24:14;1.17;;;0.70;;
58685;SDS011;44465;53.206;-6.106;2023-03-01T01:26:41;1.27;;;0.90;;
58685;SDS011;44465;53.206;-6.106;2023-03-01T01:29:07;1.85;;;0.68;;
58685;SDS011;44465;53.206;-6.106;2023-03-01T01:31:34;2.40;;;0.73;;
58685;SDS011;44465;53.206;-6.106;2023-03-01T01:34:02;3.20;;;0.80;;
58685;SDS011;44465;53.206;-6.106;2023-03-01T01:36:29;3.00;;;1.08;;
58685;SDS011;44465;53.206;-6.106;2023-03-01T01:38:55;1.38;;;0.80;;
58685;SDS011;44465;53.206;-6.106;2023-03-01T01:41:22;2.78;;;0.75;;
58685;SDS011;44465;53.206;-6.106;2023-03-01T01:43:49;2.53;;;0.77;;
58685;SDS011;44465;53.206;-6.106;2023-03-01T01:46:40;2.05;;;0.93;;
58685;SDS011;44465;53.206;-6.106;2023-03-01T01:51:55;2.40;;;0.70;;
58685;SDS011;44465;53.206;-6.106;2023-03-01T01:57:08;4.40;;;0.90;;
58685;SDS011;44465;53.206;-6.106;2023-03-01T01:59:38;2.90;;;0.90;;
58685;SDS011;44465;53.206;-6.106;2023-03-01T02:02:05;5.93;;;1.23;;
58685;SDS011;44465;53.206;-6.106;2023-03-01T02:04:31;2.35;;;0.45;;
58685;SDS011;44465;53.206;-6.106;2023-03-01T02:07:01;1.30;;;0.88;;
58685;SDS011;44465;53.206;-6.106;2023-03-01T02:09:34;0.70;;;0.40;;
58685;SDS011;44465;53.206;-6.106;2023-03-01T02:12:01;3.65;;;0.70;;
58685;SDS011;44465;53.206;-6.106;2023-03-01T02:14:29;0.60;;;0.60;;
58685;SDS011;44465;53.206;-6.106;2023-03-01T02:16:54;2.05;;;0.63;;
58685;SDS011;44465;53.206;-6.106;2023-03-01T02:19:40;0.50;;;0.50;;
58685;SDS011;44465;53.206;-6.106;2023-03-01T02:30:25;1.73;;;0.55;;
58685;SDS011;44465;53.206;-6.106;2023-03-01T02:32:53;2.42;;;1.02;;
58685;SDS011;44465;53.206;-6.106;2023-03-01T02:35:28;0.40;;;0.30;;
58685;SDS011;44465;53.206;-6.106;2023-03-01T02:38:01;2.42;;;0.60;;
58685;SDS011;44465;53.206;-6.106;2023-03-01T02:40:28;1.83;;;0.70;;
58685;SDS011;44465;53.206;-6.106;2023-03-01T02:42:58;1.65;;;0.65;;
58685;SDS011;44465;53.206;-6.106;2023-03-01T02:45:25;1.08;;;0.60;;
58685;SDS011;44465;53.206;-6.106;2023-03-01T02:47:55;0.88;;;0.50;;
58685;SDS011;44465;53.206;-6.106;2023-03-01T02:50:31;4.78;;;0.60;;
58685;SDS011;44465;53.206;-6.106;2023-03-01T02:53:22;2.95;;;0.70;;
58685;SDS011;44465;53.206;-6.106;2023-03-01T02:55:53;0.80;;;0.50;;
58685;SDS011;44465;53.206;-6.106;2023-03-01T02:58:19;1.13;;;0.32;;
58685;SDS011;44465;53.206;-6.106;2023-03-01T03:00:45;0.52;;;0.43;;
58685;SDS011;44465;53.206;-6.106;2023-03-01T03:03:14;2.58;;;0.50;;
58685;SDS011;44465;53.206;-6.106;2023-03-01T03:05:41;0.98;;;0.40;;
58685;SDS011;44465;53.206;-6.106;2023-03-01T03:08:07;1.42;;;0.60;;
58685;SDS011;44465;53.206;-6.106;2023-03-01T03:10:36;0.68;;;0.60;;
58685;SDS011;44465;53.206;-6.106;2023-03-01T03:13:11;0.52;;;0.38;;
58685;SDS011;44465;53.206;-6.106;2023-03-01T03:15:39;2.80;;;0.65;;
58685;SDS011;44465;53.206;-6.106;2023-03-01T03:18:06;0.80;;;0.40;;
58685;SDS011;44465;53.206;-6.106;2023-03-01T03:20:35;1.40;;;0.60;;
58685;SDS011;44465;53.206;-6.106;2023-03-01T03:23:01;0.63;;;0.47;;
58685;SDS011;44465;53.206;-6.106;2023-03-01T03:25:27;1.27;;;0.40;;
58685;SDS011;44465;53.206;-6.106;2023-03-01T03:27:54;3.20;;;0.70;;
58685;SDS011;44465;53.206;-6.106;2023-03-01T03:30:25;1.85;;;0.52;;
58685;SDS011;44465;53.206;-6.106;2023-03-01T03:32:52;1.15;;;0.55;;
58685;SDS011;44465;53.206;-6.106;2023-03-01T03:37:52;1.83;;;0.40;;
58685;SDS011;44465;53.206;-6.106;2023-03-01T03:40:27;0.70;;;0.40;;
58685;SDS011;44465;53.206;-6.106;2023-03-01T03:42:54;1.50;;;0.40;;
58685;SDS011;44465;53.206;-6.106;2023-03-01T03:45:20;1.77;;;0.50;;
58685;SDS011;44465;53.206;-6.106;2023-03-01T03:47:46;0.70;;;0.50;;
58685;SDS011;44465;53.206;-6.106;2023-03-01T03:50:12;1.42;;;0.43;;
58685;SDS011;44465;53.206;-6.106;2023-03-01T03:52:39;0.75;;;0.40;;
58685;SDS011;44465;53.206;-6.106;2023-03-01T03:55:05;0.90;;;0.40;;
58685;SDS011;44465;53.206;-6.106;2023-03-01T03:57:36;4.13;;;1.20;;
58685;SDS011;44465;53.206;-6.106;2023-03-01T04:00:02;1.30;;;0.68;;
58685;SDS011;44465;53.206;-6.106;2023-03-01T04:02:37;0.85;;;0.40;;
58685;SDS011;44465;53.206;-6.106;2023-03-01T04:05:06;0.65;;;0.50;;
58685;SDS011;44465;53.206;-6.106;2023-03-01T04:07:34;0.88;;;0.60;;
58685;SDS011;44465;53.206;-6.106;2023-03-01T04:10:00;1.43;;;1.00;;
58685;SDS011;44465;53.206;-6.106;2023-03-01T04:12:27;0.80;;;0.60;;
58685;SDS011;44465;53.206;-6.106;2023-03-01T04:14:53;1.35;;;0.50;;
58685;SDS011;44465;53.206;-6.106;2023-03-01T04:17:18;2.15;;;0.40;;
58685;SDS011;44465;53.206;-6.106;2023-03-01T04:19:44;0.63;;;0.40;;
58685;SDS011;44465;53.206;-6.106;2023-03-01T04:22:14;0.50;;;0.30;;
58685;SDS011;44465;53.206;-6.106;2023-03-01T04:24:42;2.10;;;0.70;;
58685;SDS011;44465;53.206;-6.106;2023-03-01T04:27:08;0.30;;;0.30;;
58685;SDS011;44465;53.206;-6.106;2023-03-01T04:29:34;1.48;;;0.45;;
58685;SDS011;44465;53.206;-6.106;2023-03-01T04:31:59;3.20;;;0.50;;
58685;SDS011;44465;53.206;-6.106;2023-03-01T04:34:25;0.73;;;0.50;;
58685;SDS011;44465;53.206;-6.106;2023-03-01T04:36:52;0.32;;;0.30;;
58685;SDS011;44465;53.206;-6.106;2023-03-01T04:39:17;0.45;;;0.30;;
58685;SDS011;44465;53.206;-6.106;2023-03-01T04:41:43;1.02;;;0.40;;
58685;SDS011;44465;53.206;-6.106;2023-03-01T04:44:09;0.40;;;0.30;;
58685;SDS011;44465;53.206;-6.106;2023-03-01T04:46:34;1.27;;;0.50;;
58685;SDS011;44465;53.206;-6.106;2023-03-01T04:49:00;1.67;;;0.43;;
58685;SDS011;44465;53.206;-6.106;2023-03-01T04:51:26;1.02;;;0.50;;
58685;SDS011;44465;53.206;-6.106;2023-03-01T04:53:51;1.67;;;0.43;;
58685;SDS011;44465;53.206;-6.106;2023-03-01T04:56:17;1.08;;;0.43;;
58685;SDS011;44465;53.206;-6.106;2023-03-01T04:58:48;1.50;;;0.50;;
58685;SDS011;44465;53.206;-6.106;2023-03-01T05:01:14;1.67;;;0.57;;
58685;SDS011;44465;53.206;-6.106;2023-03-01T05:03:43;0.80;;;0.30;;
58685;SDS011;44465;53.206;-6.106;2023-03-01T05:06:10;1.48;;;0.30;;
58685;SDS011;44465;53.206;-6.106;2023-03-01T05:08:37;0.65;;;0.45;;
58685;SDS011;44465;53.206;-6.106;2023-03-01T05:11:03;0.40;;;0.40;;
58685;SDS011;44465;53.206;-6.106;2023-03-01T05:13:30;0.77;;;0.40;;
58685;SDS011;44465;53.206;-6.106;2023-03-01T05:15:57;0.30;;;0.30;;
58685;SDS011;44465;53.206;-6.106;2023-03-01T05:18:25;2.50;;;0.50;;
58685;SDS011;44465;53.206;-6.106;2023-03-01T05:20:52;1.70;;;0.40;;
58685;SDS011;44465;53.206;-6.106;2023-03-01T05:23:21;0.73;;;0.40;;
58685;SDS011;44465;53.206;-6.106;2023-03-01T05:25:47;0.20;;;0.20;;
58685;SDS011;44465;53.206;-6.106;2023-03-01T05:28:14;1.02;;;0.30;;
58685;SDS011;44465;53.206;-6.106;2023-03-01T05:30:40;1.05;;;0.45;;
58685;SDS011;44465;53.206;-6.106;2023-03-01T05:33:07;0.30;;;0.30;;
58685;SDS011;44465;53.206;-6.106;2023-03-01T05:35:41;0.45;;;0.30;;
58685;SDS011;44465;53.206;-6.106;2023-03-01T05:38:10;0.75;;;0.32;;
58685;SDS011;44465;53.206;-6.106;2023-03-01T05:40:40;1.40;;;0.60;;
58685;SDS011;44465;53.206;-6.106;2023-03-01T05:43:09;0.68;;;0.43;;
58685;SDS011;44465;53.206;-6.106;2023-03-01T05:45:36;0.43;;;0.43;;
58685;SDS011;44465;53.206;-6.106;2023-03-01T05:48:05;0.75;;;0.40;;
58685;SDS011;44465;53.206;-6.106;2023-03-01T05:50:33;1.35;;;0.57;;
58685;SDS011;44465;53.206;-6.106;2023-03-01T05:53:05;1.27;;;0.50;;
58685;SDS011;44465;53.206;-6.106;2023-03-01T05:55:41;0.65;;;0.45;;
58685;SDS011;44465;53.206;-6.106;2023-03-01T05:58:12;0.80;;;0.45;;
58685;SDS011;44465;53.206;-6.106;2023-03-01T06:00:39;0.52;;;0.43;;
58685;SDS011;44465;53.206;-6.106;2023-03-01T06:03:05;1.52;;;0.30;;
58685;SDS011;44465;53.206;-6.106;2023-03-01T06:05:31;0.65;;;0.50;;
58685;SDS011;44465;53.206;-6.106;2023-03-01T06:08:00;1.35;;;0.40;;
58685;SDS011;44465;53.206;-6.106;2023-03-01T06:10:26;2.80;;;0.65;;
58685;SDS011;44465;53.206;-6.106;2023-03-01T06:12:53;0.73;;;0.40;;
58685;SDS011;44465;53.206;-6.106;2023-03-01T06:15:18;0.50;;;0.40;;
58685;SDS011;44465;53.206;-6.106;2023-03-01T06:17:44;1.92;;;0.40;;
58685;SDS011;44465;53.206;-6.106;2023-03-01T06:22:43;0.60;;;0.32;;
58685;SDS011;44465;53.206;-6.106;2023-03-01T06:25:09;1.90;;;0.70;;
58685;SDS011;44465;53.206;-6.106;2023-03-01T06:27:37;0.93;;;0.40;;
58685;SDS011;44465;53.206;-6.106;2023-03-01T06:30:03;0.63;;;0.50;;
58685;SDS011;44465;53.206;-6.106;2023-03-01T06:32:29;0.98;;;0.63;;
58685;SDS011;44465;53.206;-6.106;2023-03-01T06:34:56;2.03;;;0.40;;
58685;SDS011;44465;53.206;-6.106;2023-03-01T06:37:23;1.73;;;0.63;;
58685;SDS011;44465;53.206;-6.106;2023-03-01T06:39:49;3.25;;;0.60;;
58685;SDS011;44465;53.206;-6.106;2023-03-01T06:42:15;2.05;;;0.88;;
58685;SDS011;44465;53.206;-6.106;2023-03-01T06:44:40;5.32;;;1.70;;
58685;SDS011;44465;53.206;-6.106;2023-03-01T06:47:06;4.60;;;0.85;;
58685;SDS011;44465;53.206;-6.106;2023-03-01T06:49:31;5.18;;;0.68;;
58685;SDS011;44465;53.206;-6.106;2023-03-01T06:51:57;2.72;;;0.77;;
58685;SDS011;44465;53.206;-6.106;2023-03-01T06:54:22;2.30;;;0.77;;
58685;SDS011;44465;53.206;-6.106;2023-03-01T06:56:48;3.08;;;0.70;;
58685;SDS011;44465;53.206;-6.106;2023-03-01T06:59:15;0.77;;;0.70;;
58685;SDS011;44465;53.206;-6.106;2023-03-01T07:01:41;1.85;;;0.40;;
58685;SDS011;44465;53.206;-6.106;2023-03-01T07:04:07;2.58;;;0.95;;
58685;SDS011;44465;53.206;-6.106;2023-03-01T07:06:32;2.42;;;0.60;;
58685;SDS011;44465;53.206;-6.106;2023-03-01T07:08:58;2.10;;;0.80;;
58685;SDS011;44465;53.206;-6.106;2023-03-01T07:11:23;3.28;;;0.50;;
58685;SDS011;44465;53.206;-6.106;2023-03-01T07:13:49;1.88;;;0.60;;
58685;SDS011;44465;53.206;-6.106;2023-03-01T07:16:14;2.78;;;0.95;;
58685;SDS011;44465;53.206;-6.106;2023-03-01T07:18:40;1.88;;;0.75;;
58685;SDS011;44465;53.206;-6.106;2023-03-01T07:21:07;2.17;;;0.65;;
58685;SDS011;44465;53.206;-6.106;2023-03-01T07:23:33;1.43;;;0.60;;
58685;SDS011;44465;53.206;-6.106;2023-03-01T07:25:59;3.70;;;0.77;;
58685;SDS011;44465;53.206;-6.106;2023-03-01T07:28:25;2.33;;;0.50;;
58685;SDS011;44465;53.206;-6.106;2023-03-01T07:30:51;3.25;;;0.52;;
58685;SDS011;44465;53.206;-6.106;2023-03-01T07:33:17;2.05;;;0.60;;
58685;SDS011;44465;53.206;-6.106;2023-03-01T07:35:42;1.55;;;0.65;;
58685;SDS011;44465;53.206;-6.106;2023-03-01T07:38:08;3.28;;;0.60;;
58685;SDS011;44465;53.206;-6.106;2023-03-01T07:40:34;1.85;;;0.63;;
58685;SDS011;44465;53.206;-6.106;2023-03-01T07:43:00;0.80;;;0.40;;
58685;SDS011;44465;53.206;-6.106;2023-03-01T07:45:26;2.55;;;0.60;;
58685;SDS011;44465;53.206;-6.106;2023-03-01T07:47:52;2.17;;;0.85;;
58685;SDS011;44465;53.206;-6.106;2023-03-01T07:50:18;2.90;;;0.90;;
58685;SDS011;44465;53.206;-6.106;2023-03-01T07:52:45;2.15;;;0.57;;
58685;SDS011;44465;53.206;-6.106;2023-03-01T07:55:11;0.33;;;0.33;;
58685;SDS011;44465;53.206;-6.106;2023-03-01T07:57:37;0.95;;;0.73;;
58685;SDS011;44465;53.206;-6.106;2023-03-01T08:00:02;1.35;;;0.50;;
58685;SDS011;44465;53.206;-6.106;2023-03-01T08:02:37;2.72;;;0.50;;
58685;SDS011;44465;53.206;-6.106;2023-03-01T08:05:03;0.50;;;0.50;;
58685;SDS011;44465;53.206;-6.106;2023-03-01T08:07:29;1.38;;;0.57;;
58685;SDS011;44465;53.206;-6.106;2023-03-01T08:09:54;1.45;;;0.50;;
58685;SDS011;44465;53.206;-6.106;2023-03-01T08:12:20;1.17;;;0.40;;
58685;SDS011;44465;53.206;-6.106;2023-03-01T08:14:45;2.55;;;0.63;;
58685;SDS011;44465;53.206;-6.106;2023-03-01T08:17:13;1.85;;;0.40;;
58685;SDS011;44465;53.206;-6.106;2023-03-01T08:19:39;1.92;;;0.63;;
58685;SDS011;44465;53.206;-6.106;2023-03-01T08:22:05;0.47;;;0.47;;
58685;SDS011;44465;53.206;-6.106;2023-03-01T08:24:30;0.43;;;0.28;;
58685;SDS011;44465;53.206;-6.106;2023-03-01T08:26:55;0.82;;;0.50;;
58685;SDS011;44465;53.206;-6.106;2023-03-01T08:29:21;0.77;;;0.70;;
58685;SDS011;44465;53.206;-6.106;2023-03-01T08:31:47;0.52;;;0.50;;
58685;SDS011;44465;53.206;-6.106;2023-03-01T08:34:14;0.40;;;0.40;;
58685;SDS011;44465;53.206;-6.106;2023-03-01T08:36:42;2.25;;;0.70;;
58685;SDS011;44465;53.206;-6.106;2023-03-01T08:39:14;1.02;;;0.32;;
58685;SDS011;44465;53.206;-6.106;2023-03-01T08:41:41;1.98;;;0.55;;
58685;SDS011;44465;53.206;-6.106;2023-03-01T08:44:07;0.50;;;0.50;;
58685;SDS011;44465;53.206;-6.106;2023-03-01T08:46:35;2.07;;;0.47;;
58685;SDS011;44465;53.206;-6.106;2023-03-01T08:49:09;0.73;;;0.40;;
58685;SDS011;44465;53.206;-6.106;2023-03-01T08:51:37;1.30;;;0.50;;
58685;SDS011;44465;53.206;-6.106;2023-03-01T08:54:06;0.90;;;0.47;;
58685;SDS011;44465;53.206;-6.106;2023-03-01T08:56:35;1.08;;;0.50;;
58685;SDS011;44465;53.206;-6.106;2023-03-01T08:59:00;0.68;;;0.57;;
58685;SDS011;44465;53.206;-6.106;2023-03-01T09:01:26;1.35;;;0.40;;
58685;SDS011;44465;53.206;-6.106;2023-03-01T09:03:51;2.22;;;0.52;;
58685;SDS011;44465;53.206;-6.106;2023-03-01T09:06:17;0.68;;;0.28;;
58685;SDS011;44465;53.206;-6.106;2023-03-01T09:08:47;0.30;;;0.30;;
58685;SDS011;44465;53.206;-6.106;2023-03-01T09:11:14;2.15;;;0.50;;
58685;SDS011;44465;53.206;-6.106;2023-03-01T09:13:42;0.30;;;0.20;;
58685;SDS011;44465;53.206;-6.106;2023-03-01T09:16:10;2.13;;;0.50;;
58685;SDS011;44465;53.206;-6.106;2023-03-01T09:23:42;0.50;;;0.50;;
58685;SDS011;44465;53.206;-6.106;2023-03-01T09:26:10;1.25;;;0.30;;
58685;SDS011;44465;53.206;-6.106;2023-03-01T09:28:41;2.17;;;0.50;;
58685;SDS011;44465;53.206;-6.106;2023-03-01T09:31:09;14.52;;;0.85;;
58685;SDS011;44465;53.206;-6.106;2023-03-01T09:33:38;0.52;;;0.40;;
58685;SDS011;44465;53.206;-6.106;2023-03-01T09:36:06;2.40;;;0.60;;
58685;SDS011;44465;53.206;-6.106;2023-03-01T09:38:33;3.40;;;0.40;;
58685;SDS011;44465;53.206;-6.106;2023-03-01T09:40:59;1.23;;;0.28;;
58685;SDS011;44465;53.206;-6.106;2023-03-01T09:43:43;1.02;;;0.63;;
58685;SDS011;44465;53.206;-6.106;2023-03-01T09:46:19;2.10;;;0.38;;
58685;SDS011;44465;53.206;-6.106;2023-03-01T09:48:51;2.25;;;0.30;;
58685;SDS011;44465;53.206;-6.106;2023-03-01T09:51:26;0.55;;;0.40;;
58685;SDS011;44465;53.206;-6.106;2023-03-01T09:53:55;3.10;;;0.65;;
58685;SDS011;44465;53.206;-6.106;2023-03-01T09:56:41;4.25;;;0.50;;
58685;SDS011;44465;53.206;-6.106;2023-03-01T10:04:50;2.08;;;0.50;;
58685;SDS011;44465;53.206;-6.106;2023-03-01T10:07:27;1.23;;;0.40;;
58685;SDS011;44465;53.206;-6.106;2023-03-01T10:09:58;2.80;;;0.68;;
58685;SDS011;44465;53.206;-6.106;2023-03-01T10:12:32;4.63;;;0.75;;
58685;SDS011;44465;53.206;-6.106;2023-03-01T10:17:56;0.95;;;0.60;;
58685;SDS011;44465;53.206;-6.106;2023-03-01T10:20:28;2.10;;;0.50;;
58685;SDS011;44465;53.206;-6.106;2023-03-01T10:23:08;2.30;;;0.63;;
58685;SDS011;44465;53.206;-6.106;2023-03-01T10:25:46;1.75;;;0.30;;
58685;SDS011;44465;53.206;-6.106;2023-03-01T10:28:25;3.75;;;0.60;;
58685;SDS011;44465;53.206;-6.106;2023-03-01T10:30:56;1.83;;;0.60;;
58685;SDS011;44465;53.206;-6.106;2023-03-01T10:33:24;2.63;;;0.57;;
58685;SDS011;44465;53.206;-6.106;2023-03-01T10:35:53;1.95;;;0.70;;
58685;SDS011;44465;53.206;-6.106;2023-03-01T10:38:18;1.48;;;0.40;;
58685;SDS011;44465;53.206;-6.106;2023-03-01T10:40:52;1.13;;;0.43;;
58685;SDS011;44465;53.206;-6.106;2023-03-01T10:43:20;1.10;;;0.22;;
58685;SDS011;44465;53.206;-6.106;2023-03-01T10:45:46;0.65;;;0.52;;
58685;SDS011;44465;53.206;-6.106;2023-03-01T10:48:16;1.10;;;0.57;;
58685;SDS011;44465;53.206;-6.106;2023-03-01T10:50:45;0.40;;;0.30;;
58685;SDS011;44465;53.206;-6.106;2023-03-01T10:55:57;33.88;;;4.57;;
58685;SDS011;44465;53.206;-6.106;2023-03-01T10:58:25;8.55;;;1.30;;
58685;SDS011;44465;53.206;-6.106;2023-03-01T11:00:52;8.60;;;1.23;;
58685;SDS011;44465;53.206;-6.106;2023-03-01T11:04:23;4.45;;;0.82;;
58685;SDS011;44465;53.206;-6.106;2023-03-01T11:06:35;1.55;;;0.57;;
58685;SDS011;44465;53.206;-6.106;2023-03-01T11:11:40;10.85;;;1.63;;
58685;SDS011;44465;53.206;-6.106;2023-03-01T11:14:22;92.95;;;9.63;;
58685;SDS011;44465;53.206;-6.106;2023-03-01T11:19:40;19.33;;;2.88;;
58685;SDS011;44465;53.206;-6.106;2023-03-01T11:22:07;15.55;;;2.58;;
58685;SDS011;44465;53.206;-6.106;2023-03-01T11:24:40;20.48;;;2.97;;
58685;SDS011;44465;53.206;-6.106;2023-03-01T11:27:31;15.32;;;2.72;;
58685;SDS011;44465;53.206;-6.106;2023-03-01T11:30:02;14.43;;;2.40;;
58685;SDS011;44465;53.206;-6.106;2023-03-01T11:35:33;10.65;;;2.83;;
58685;SDS011;44465;53.206;-6.106;2023-03-01T11:38:16;10.25;;;2.05;;
58685;SDS011;44465;53.206;-6.106;2023-03-01T11:43:22;13.18;;;1.45;;
58685;SDS011;44465;53.206;-6.106;2023-03-01T11:45:55;15.13;;;2.88;;
58685;SDS011;44465;53.206;-6.106;2023-03-01T11:57:15;9.35;;;1.83;;
58685;SDS011;44465;53.206;-6.106;2023-03-01T12:00:18;10.60;;;1.42;;
58685;SDS011;44465;53.206;-6.106;2023-03-01T12:08:43;12.70;;;2.17;;
58685;SDS011;44465;53.206;-6.106;2023-03-01T12:11:20;11.88;;;2.33;;
58685;SDS011;44465;53.206;-6.106;2023-03-01T12:22:28;8.45;;;1.48;;
58685;SDS011;44465;53.206;-6.106;2023-03-01T12:36:03;17.70;;;3.38;;
58685;SDS011;44465;53.206;-6.106;2023-03-01T12:38:59;23.25;;;4.45;;
58685;SDS011;44465;53.206;-6.106;2023-03-01T12:41:31;28.10;;;3.67;;
58685;SDS011;44465;53.206;-6.106;2023-03-01T12:44:04;26.33;;;4.25;;
58685;SDS011;44465;53.206;-6.106;2023-03-01T12:51:58;20.52;;;2.97;;
58685;SDS011;44465;53.206;-6.106;2023-03-01T12:54:30;15.70;;;2.67;;
58685;SDS011;44465;53.206;-6.106;2023-03-01T12:56:59;21.50;;;2.70;;
58685;SDS011;44465;53.206;-6.106;2023-03-01T12:59:39;19.50;;;2.85;;
58685;SDS011;44465;53.206;-6.106;2023-03-01T13:02:16;18.65;;;2.63;;
58685;SDS011;44465;53.206;-6.106;2023-03-01T13:07:38;13.38;;;2.10;;
58685;SDS011;44465;53.206;-6.106;2023-03-01T13:15:33;11.13;;;2.22;;
58685;SDS011;44465;53.206;-6.106;2023-03-01T13:34:03;11.15;;;2.45;;
58685;SDS011;44465;53.206;-6.106;2023-03-01T13:52:50;7.70;;;1.63;;
58685;SDS011;44465;53.206;-6.106;2023-03-01T13:58:19;4.10;;;1.20;;
58685;SDS011;44465;53.206;-6.106;2023-03-01T14:00:54;4.75;;;1.20;;
58685;SDS011;44465;53.206;-6.106;2023-03-01T14:03:23;4.57;;;1.33;;
58685;SDS011;44465;53.206;-6.106;2023-03-01T14:06:02;6.22;;;1.15;;
58685;SDS011;44465;53.206;-6.106;2023-03-01T14:08:33;1.05;;;0.70;;
58685;SDS011;44465;53.206;-6.106;2023-03-01T14:11:24;6.13;;;0.90;;
58685;SDS011;44465;53.206;-6.106;2023-03-01T14:14:20;3.80;;;0.93;;
58685;SDS011;44465;53.206;-6.106;2023-03-01T14:19:41;5.07;;;1.83;;
58685;SDS011;44465;53.206;-6.106;2023-03-01T14:22:22;5.28;;;1.35;;
58685;SDS011;44465;53.206;-6.106;2023-03-01T14:24:51;4.18;;;1.33;;
58685;SDS011;44465;53.206;-6.106;2023-03-01T14:27:23;3.58;;;0.60;;
58685;SDS011;44465;53.206;-6.106;2023-03-01T14:30:26;2.30;;;0.95;;
58685;SDS011;44465;53.206;-6.106;2023-03-01T14:32:53;7.20;;;1.48;;
58685;SDS011;44465;53.206;-6.106;2023-03-01T14:35:22;4.40;;;0.82;;
58685;SDS011;44465;53.206;-6.106;2023-03-01T14:37:50;3.22;;;0.85;;
58685;SDS011;44465;53.206;-6.106;2023-03-01T14:40:34;5.85;;;1.48;;
58685;SDS011;44465;53.206;-6.106;2023-03-01T14:43:01;3.08;;;0.85;;
58685;SDS011;44465;53.206;-6.106;2023-03-01T14:45:34;1.80;;;0.80;;
58685;SDS011;44465;53.206;-6.106;2023-03-01T14:48:01;2.80;;;0.55;;
58685;SDS011;44465;53.206;-6.106;2023-03-01T14:50:29;4.25;;;0.95;;
58685;SDS011;44465;53.206;-6.106;2023-03-01T14:52:58;2.80;;;1.10;;
58685;SDS011;44465;53.206;-6.106;2023-03-01T14:55:36;3.75;;;0.80;;
58685;SDS011;44465;53.206;-6.106;2023-03-01T14:58:06;6.40;;;1.70;;
58685;SDS011;44465;53.206;-6.106;2023-03-01T15:00:37;11.63;;;2.05;;
58685;SDS011;44465;53.206;-6.106;2023-03-01T15:03:07;5.88;;;1.20;;
58685;SDS011;44465;53.206;-6.106;2023-03-01T15:05:38;6.22;;;1.25;;
58685;SDS011;44465;53.206;-6.106;2023-03-01T15:08:05;3.92;;;0.82;;
58685;SDS011;44465;53.206;-6.106;2023-03-01T15:10:33;7.90;;;1.00;;
58685;SDS011;44465;53.206;-6.106;2023-03-01T15:15:45;6.10;;;1.08;;
58685;SDS011;44465;53.206;-6.106;2023-03-01T15:18:19;7.07;;;1.00;;
58685;SDS011;44465;53.206;-6.106;2023-03-01T15:20:47;5.80;;;1.13;;
58685;SDS011;44465;53.206;-6.106;2023-03-01T15:23:19;6.43;;;1.40;;
58685;SDS011;44465;53.206;-6.106;2023-03-01T15:25:48;3.67;;;0.70;;
58685;SDS011;44465;53.206;-6.106;2023-03-01T15:28:22;5.05;;;0.90;;
58685;SDS011;44465;53.206;-6.106;2023-03-01T15:31:33;7.32;;;1.80;;
58685;SDS011;44465;53.206;-6.106;2023-03-01T15:33:44;3.25;;;0.65;;
58685;SDS011;44465;53.206;-6.106;2023-03-01T15:42:05;3.47;;;0.90;;
58685;SDS011;44465;53.206;-6.106;2023-03-01T15:44:35;2.88;;;0.80;;
58685;SDS011;44465;53.206;-6.106;2023-03-01T15:47:04;3.00;;;0.65;;
58685;SDS011;44465;53.206;-6.106;2023-03-01T15:49:46;5.38;;;0.90;;
58685;SDS011;44465;53.206;-6.106;2023-03-01T15:52:19;3.40;;;0.80;;
58685;SDS011;44465;53.206;-6.106;2023-03-01T15:54:54;3.95;;;1.40;;
58685;SDS011;44465;53.206;-6.106;2023-03-01T15:57:24;5.97;;;1.38;;
58685;SDS011;44465;53.206;-6.106;2023-03-01T15:59:49;1.33;;;0.70;;
58685;SDS011;44465;53.206;-6.106;2023-03-01T16:02:15;5.00;;;1.23;;
58685;SDS011;44465;53.206;-6.106;2023-03-01T16:04:40;3.85;;;0.60;;
58685;SDS011;44465;53.206;-6.106;2023-03-01T16:07:06;3.22;;;0.98;;
58685;SDS011;44465;53.206;-6.106;2023-03-01T16:09:31;3.20;;;1.02;;
58685;SDS011;44465;53.206;-6.106;2023-03-01T16:11:57;1.48;;;0.75;;
58685;SDS011;44465;53.206;-6.106;2023-03-01T16:14:23;1.85;;;0.73;;
58685;SDS011;44465;53.206;-6.106;2023-03-01T16:16:49;4.18;;;0.70;;
58685;SDS011;44465;53.206;-6.106;2023-03-01T16:19:14;3.20;;;0.90;;
58685;SDS011;44465;53.206;-6.106;2023-03-01T16:21:41;2.65;;;0.60;;
58685;SDS011;44465;53.206;-6.106;2023-03-01T16:26:34;7.13;;;1.13;;
58685;SDS011;44465;53.206;-6.106;2023-03-01T16:29:01;13.57;;;2.45;;
58685;SDS011;44465;53.206;-6.106;2023-03-01T16:31:27;10.52;;;1.73;;
58685;SDS011;44465;53.206;-6.106;2023-03-01T16:33:57;4.40;;;1.25;;
58685;SDS011;44465;53.206;-6.106;2023-03-01T16:36:24;10.88;;;2.50;;
58685;SDS011;44465;53.206;-6.106;2023-03-01T16:38:53;13.18;;;2.35;;
58685;SDS011;44465;53.206;-6.106;2023-03-01T16:41:22;11.35;;;1.92;;
58685;SDS011;44465;53.206;-6.106;2023-03-01T16:43:49;8.52;;;1.05;;
58685;SDS011;44465;53.206;-6.106;2023-03-01T16:46:16;4.60;;;1.53;;
58685;SDS011;44465;53.206;-6.106;2023-03-01T16:48:44;3.70;;;0.82;;
58685;SDS011;44465;53.206;-6.106;2023-03-01T16:51:11;6.15;;;1.13;;
58685;SDS011;44465;53.206;-6.106;2023-03-01T16:53:37;4.57;;;1.50;;
58685;SDS011;44465;53.206;-6.106;2023-03-01T16:56:04;10.48;;;1.55;;
58685;SDS011;44465;53.206;-6.106;2023-03-01T16:58:33;7.82;;;1.52;;
58685;SDS011;44465;53.206;-6.106;2023-03-01T17:03:36;3.35;;;1.15;;
58685;SDS011;44465;53.206;-6.106;2023-03-01T17:06:03;5.10;;;1.33;;
58685;SDS011;44465;53.206;-6.106;2023-03-01T17:08:30;2.45;;;1.50;;
58685;SDS011;44465;53.206;-6.106;2023-03-01T17:11:01;3.92;;;0.90;;